< < Back
Terminal Aerodrome Forecast


Current Version              Previous Versions:   1  2  3  4  5  6  7  8  9  

Terminal Aerodrome Forecast

575
FTUS42 KCHS 191131
TAFSAV
TAF
KSAV 191131Z 1912/2012 17005KT 2SM SHRA BR BKN007 OVC030
     FM191500 19010KT P6SM SCT025 BKN060
      TEMPO 1920/1924 2SM +TSRA BR SCT008 BKN015CB
     FM200000 21006KT P6SM SCT015 BKN120=



Latest METAR

126
SAUS80 KWBC 191900 RRA
MTRSAV
METAR KSAV 191853Z 16010KT 10SM FEW015 SCT025 BKN110 OVC200 27/21 A2985
RMK AO2 SLP108 T02670211


USA.gov is the U.S. government's official web portal to all federal, state and local government web resources and services.